Time;durP1;ratioP1;P1;durP2;ratioP2;P2;SDS_P1;SDS_P2;PMS_P1;PMS_P2;Temp;Humidity;BMP_temperature;BMP_pressure;BME280_temperature;BME280_humidity;BME280_pressure;Samples;Min_cycle;Max_cycle;Signal;HPM_P1;HPM_P2
2023/12/20 00:01:23;;;;;;;15.75;1.58;;;4.90;99.90;;;;;;5056294;28;20454;-18
2023/12/20 00:03:48;;;;;;;23.70;3.22;;;4.90;99.90;;;;;;5056992;28;20047;-18
2023/12/20 00:06:14;;;;;;;25.08;3.53;;;4.90;99.90;;;;;;5056802;28;20060;-18
2023/12/20 00:08:40;;;;;;;21.90;2.15;;;4.70;99.90;;;;;;5056718;28;20063;-18
2023/12/20 00:11:06;;;;;;;15.40;2.25;;;4.70;99.90;;;;;;5039155;28;20048;-18
2023/12/20 00:13:32;;;;;;;22.90;4.18;;;4.70;99.90;;;;;;5056600;28;20049;-18
2023/12/20 00:15:57;;;;;;;22.48;3.25;;;4.80;99.90;;;;;;5055613;28;20049;-18
2023/12/20 00:18:23;;;;;;;17.55;1.88;;;4.80;99.90;;;;;;5056569;28;20080;-18
2023/12/20 00:20:49;;;;;;;15.98;1.90;;;4.80;99.90;;;;;;5055301;28;20114;-18
2023/12/20 00:23:15;;;;;;;19.73;2.53;;;4.80;99.90;;;;;;5055191;28;20053;-18
2023/12/20 00:25:41;;;;;;;24.23;3.78;;;4.80;99.90;;;;;;5055240;28;20103;-18
2023/12/20 00:28:06;;;;;;;13.80;1.83;;;4.80;99.90;;;;;;5056266;28;20047;-18
2023/12/20 00:30:32;;;;;;;18.55;3.15;;;4.90;99.90;;;;;;5056191;28;20119;-18
2023/12/20 00:32:58;;;;;;;14.32;1.73;;;4.90;99.90;;;;;;5055323;28;20051;-18
2023/12/20 00:35:24;;;;;;;14.48;2.22;;;4.90;99.90;;;;;;5056243;28;20525;-18
2023/12/20 00:37:50;;;;;;;16.63;2.72;;;5.10;99.90;;;;;;5055483;28;20407;-18
2023/12/20 00:40:16;;;;;;;15.65;2.42;;;5.20;99.90;;;;;;5056154;28;20372;-18
2023/12/20 00:42:42;;;;;;;12.35;1.85;;;5.20;99.90;;;;;;5055676;28;20487;-18
2023/12/20 00:45:08;;;;;;;18.92;2.50;;;5.20;99.90;;;;;;5056845;28;20106;-18
2023/12/20 00:47:34;;;;;;;17.58;2.88;;;5.20;99.90;;;;;;5055310;28;20049;-18
2023/12/20 00:49:59;;;;;;;17.65;1.63;;;5.10;99.90;;;;;;5055895;28;20052;-18
2023/12/20 00:52:25;;;;;;;19.85;3.25;;;5.20;99.90;;;;;;5038060;28;20049;-18
2023/12/20 00:54:52;;;;;;;14.32;2.03;;;5.20;99.90;;;;;;5021825;28;20059;-18
2023/12/20 00:57:17;;;;;;;19.80;2.40;;;5.10;99.90;;;;;;5054934;28;20044;-18
2023/12/20 00:59:43;;;;;;;16.55;1.63;;;5.10;99.90;;;;;;5055791;28;20507;-18
2023/12/20 01:02:09;;;;;;;15.32;1.88;;;5.10;99.90;;;;;;5054677;28;20122;-18
2023/12/20 01:04:35;;;;;;;23.80;3.33;;;5.10;99.90;;;;;;5055567;28;20045;-18
2023/12/20 01:07:01;;;;;;;13.95;2.30;;;5.00;99.90;;;;;;5055200;28;20037;-18
2023/12/20 01:09:27;;;;;;;13.93;1.98;;;5.00;99.90;;;;;;5054909;28;20099;-18
2023/12/20 01:11:53;;;;;;;14.73;2.00;;;4.90;99.90;;;;;;5055593;28;20049;-18
2023/12/20 01:14:19;;;;;;;20.35;2.95;;;5.00;99.90;;;;;;5055907;28;20076;-18
2023/12/20 01:16:45;;;;;;;10.93;2.10;;;5.00;99.90;;;;;;5054470;28;20087;-18
2023/12/20 01:19:11;;;;;;;15.15;2.55;;;5.00;99.90;;;;;;5055974;28;20387;-18
2023/12/20 01:21:37;;;;;;;14.35;2.42;;;5.00;99.90;;;;;;5055301;28;20040;-18
2023/12/20 01:24:03;;;;;;;16.23;3.38;;;5.10;99.90;;;;;;5054020;28;20063;-18
2023/12/20 01:26:29;;;;;;;15.88;2.20;;;5.20;99.90;;;;;;5055908;28;20049;-18
2023/12/20 01:28:55;;;;;;;17.35;1.65;;;5.20;99.90;;;;;;5054600;28;20128;-18
2023/12/20 01:31:20;;;;;;;12.35;2.78;;;5.30;99.90;;;;;;5053921;28;20045;-18
2023/12/20 01:33:46;;;;;;;17.85;2.97;;;5.40;99.90;;;;;;5054505;28;20049;-18
2023/12/20 01:36:12;;;;;;;19.50;3.30;;;5.40;99.90;;;;;;5055686;28;20045;-18
2023/12/20 01:38:38;;;;;;;19.95;3.47;;;5.40;99.90;;;;;;5054116;28;20049;-18
2023/12/20 01:41:04;;;;;;;10.88;2.33;;;5.40;99.90;;;;;;5055057;28;20135;-18
2023/12/20 01:43:30;;;;;;;11.90;1.85;;;5.40;99.90;;;;;;5055676;28;20049;-18
2023/12/20 01:46:00;;;;;;;8.85;1.70;;;5.30;99.90;;;;;;5055741;28;20394;-18
2023/12/20 01:48:27;;;;;;;13.68;2.83;;;5.20;99.90;;;;;;5054895;28;20151;-18
2023/12/20 01:50:54;;;;;;;15.77;2.30;;;5.20;99.90;;;;;;5053632;28;20053;-19
2023/12/20 01:53:24;;;;;;;13.50;2.00;;;5.20;99.90;;;;;;5053541;28;20103;-19
2023/12/20 01:55:52;;;;;;;22.58;3.70;;;5.40;99.90;;;;;;5036884;28;20143;-17
2023/12/20 01:58:19;;;;;;;13.48;2.08;;;5.20;99.90;;;;;;5053454;28;20053;-18
2023/12/20 02:00:45;;;;;;;14.10;2.45;;;5.20;99.90;;;;;;5054872;28;20110;-18
2023/12/20 02:03:11;;;;;;;17.60;2.53;;;5.30;99.90;;;;;;5054511;28;20045;-18
2023/12/20 02:05:38;;;;;;;17.98;3.63;;;5.10;99.90;;;;;;5053855;28;20044;-18
2023/12/20 02:08:05;;;;;;;11.98;2.05;;;5.10;99.90;;;;;;5054478;28;20051;-18
2023/12/20 02:10:31;;;;;;;18.25;2.85;;;5.20;99.90;;;;;;5053239;28;20110;-18
2023/12/20 02:12:57;;;;;;;10.18;1.77;;;5.20;99.90;;;;;;5055015;28;20037;-18
2023/12/20 02:15:23;;;;;;;13.93;1.55;;;5.20;99.90;;;;;;5054340;28;20048;-18
2023/12/20 02:17:49;;;;;;;17.35;2.67;;;5.30;99.90;;;;;;5053421;28;20407;-18
2023/12/20 02:20:15;;;;;;;10.85;1.95;;;5.30;99.90;;;;;;5054214;28;20049;-18
2023/12/20 02:22:41;;;;;;;23.65;2.95;;;5.40;99.90;;;;;;5052675;28;20060;-18
2023/12/20 02:25:07;;;;;;;18.52;2.90;;;5.30;99.90;;;;;;5036526;28;20040;-18
2023/12/20 02:27:34;;;;;;;23.35;3.03;;;5.50;99.90;;;;;;5054011;28;20090;-18
2023/12/20 02:30:00;;;;;;;25.17;4.90;;;5.50;99.90;;;;;;5036530;28;20096;-18
2023/12/20 02:32:26;;;;;;;19.80;3.42;;;5.50;99.90;;;;;;5052881;28;20505;-19
2023/12/20 02:34:52;;;;;;;27.23;4.30;;;5.70;99.90;;;;;;5053993;28;20071;-17
2023/12/20 02:37:20;;;;;;;13.30;2.75;;;5.60;99.90;;;;;;5053343;28;20052;-18
2023/12/20 02:39:46;;;;;;;16.52;2.08;;;5.20;99.90;;;;;;5053962;28;20041;-18
2023/12/20 02:42:12;;;;;;;18.88;2.63;;;5.50;99.90;;;;;;5053742;28;20056;-18
2023/12/20 02:44:38;;;;;;;19.77;3.45;;;5.20;99.90;;;;;;5053843;28;20041;-18
2023/12/20 02:47:04;;;;;;;17.73;3.40;;;5.30;99.90;;;;;;5053817;28;20136;-18
2023/12/20 02:49:30;;;;;;;12.43;2.88;;;5.70;99.90;;;;;;5053846;28;20056;-18
2023/12/20 02:51:55;;;;;;;18.88;2.47;;;5.60;99.90;;;;;;5052639;28;20090;-18
2023/12/20 02:54:21;;;;;;;22.92;4.07;;;5.60;99.90;;;;;;5053951;28;20045;-18
2023/12/20 02:56:48;;;;;;;23.73;3.88;;;5.80;99.90;;;;;;5053719;28;20132;-18
2023/12/20 02:59:13;;;;;;;22.15;4.03;;;5.90;99.90;;;;;;5052799;28;20045;-18
2023/12/20 03:01:44;;;;;;;29.45;4.10;;;5.80;99.90;;;;;;5035927;28;20139;-18
2023/12/20 03:04:10;;;;;;;41.45;6.43;;;5.60;99.90;;;;;;5036734;28;20044;-18
2023/12/20 03:06:36;;;;;;;24.80;4.30;;;5.80;99.90;;;;;;5052419;28;20430;-18
2023/12/20 03:09:02;;;;;;;23.63;4.40;;;5.70;99.90;;;;;;5035392;28;20053;-18
2023/12/20 03:11:28;;;;;;;23.92;4.00;;;5.80;99.90;;;;;;5052539;28;20049;-18
2023/12/20 03:13:54;;;;;;;25.10;3.90;;;5.80;99.90;;;;;;5054062;28;20041;-18
2023/12/20 03:16:20;;;;;;;15.35;3.13;;;5.90;99.90;;;;;;5038533;28;20084;-18
2023/12/20 03:18:46;;;;;;;21.08;3.15;;;6.10;99.90;;;;;;5039949;28;20084;-18
2023/12/20 03:21:12;;;;;;;15.23;3.50;;;6.00;99.90;;;;;;5058139;28;20144;-18
2023/12/20 03:23:38;;;;;;;21.40;2.55;;;6.10;99.90;;;;;;5057664;28;20060;-18
2023/12/20 03:26:07;;;;;;;20.85;3.33;;;6.00;99.90;;;;;;5057791;28;20049;-18
2023/12/20 03:28:33;;;;;;;22.52;4.47;;;6.00;99.90;;;;;;5057115;28;20513;-18
2023/12/20 03:30:59;;;;;;;10.32;2.30;;;6.10;99.90;;;;;;5058073;28;20041;-18
2023/12/20 03:33:25;;;;;;;20.00;2.70;;;5.90;99.90;;;;;;5057398;28;20045;-18
2023/12/20 03:35:51;;;;;;;21.67;3.58;;;5.80;99.90;;;;;;5057008;28;20056;-18
2023/12/20 03:38:17;;;;;;;26.67;4.25;;;5.50;99.90;;;;;;5057306;28;20059;-18
2023/12/20 03:40:43;;;;;;;14.68;4.03;;;5.60;99.90;;;;;;5039160;28;20044;-18
2023/12/20 03:43:08;;;;;;;21.27;3.85;;;5.50;99.90;;;;;;5039844;28;20037;-18
2023/12/20 03:45:34;;;;;;;18.27;3.40;;;5.50;99.90;;;;;;5055992;28;20099;-18
2023/12/20 03:48:00;;;;;;;25.92;4.57;;;5.70;99.90;;;;;;5056756;28;20087;-18
2023/12/20 03:50:26;;;;;;;22.88;3.55;;;5.70;99.90;;;;;;5056129;28;20438;-18
2023/12/20 03:52:52;;;;;;;22.95;3.58;;;5.70;99.90;;;;;;5039208;28;20398;-18
2023/12/20 03:55:18;;;;;;;27.65;3.78;;;6.00;99.90;;;;;;5055571;28;20510;-18
2023/12/20 03:57:44;;;;;;;21.17;3.88;;;5.70;99.90;;;;;;5056956;28;20091;-18
2023/12/20 04:00:11;;;;;;;19.65;3.95;;;5.80;99.90;;;;;;5056569;28;20141;-18
2023/12/20 04:02:41;;;;;;;29.45;4.40;;;5.90;99.90;;;;;;5056793;28;20045;-18
2023/12/20 04:05:07;;;;;;;24.75;4.57;;;5.90;99.90;;;;;;5057958;28;20045;-18
2023/12/20 04:07:33;;;;;;;21.75;5.22;;;6.00;99.90;;;;;;5056811;28;20051;-18
2023/12/20 04:09:59;;;;;;;24.58;4.25;;;6.00;99.90;;;;;;5056710;28;20107;-18
2023/12/20 04:12:30;;;;;;;30.48;3.72;;;6.00;99.90;;;;;;5055436;28;20048;-18
2023/12/20 04:14:56;;;;;;;21.13;3.70;;;6.20;99.90;;;;;;5056546;28;20114;-18
2023/12/20 04:17:25;;;;;;;16.30;2.88;;;6.30;99.90;;;;;;5056570;28;20045;-18
2023/12/20 04:19:51;;;;;;;16.65;3.15;;;6.40;99.90;;;;;;5056551;28;20044;-18
2023/12/20 04:22:18;;;;;;;19.10;3.63;;;6.30;99.90;;;;;;5057336;28;20049;-18
2023/12/20 04:24:44;;;;;;;27.15;4.20;;;6.30;99.90;;;;;;5056370;28;20057;-18
2023/12/20 04:27:10;;;;;;;20.25;3.47;;;6.40;99.90;;;;;;5054465;28;20136;-18
2023/12/20 04:29:36;;;;;;;28.20;4.57;;;6.40;99.90;;;;;;5056369;28;20045;-18
2023/12/20 04:32:02;;;;;;;29.50;4.47;;;6.40;99.90;;;;;;5055386;28;20048;-18
2023/12/20 04:34:28;;;;;;;23.38;4.68;;;6.30;99.90;;;;;;5056788;28;20463;-18
2023/12/20 04:36:54;;;;;;;21.17;4.25;;;6.20;99.90;;;;;;5056253;28;20048;-18
2023/12/20 04:39:20;;;;;;;21.98;4.28;;;6.30;99.90;;;;;;5055060;28;20049;-18
2023/12/20 04:41:47;;;;;;;21.60;3.08;;;6.40;99.90;;;;;;5054949;28;20541;-18
2023/12/20 04:44:13;;;;;;;21.75;3.17;;;6.40;99.90;;;;;;5056076;28;20049;-18
2023/12/20 04:46:39;;;;;;;13.88;2.58;;;6.40;99.90;;;;;;5056058;28;20084;-18
2023/12/20 04:49:05;;;;;;;13.77;3.15;;;6.40;99.90;;;;;;5055026;28;20549;-18
2023/12/20 04:51:34;;;;;;;17.55;2.65;;;6.50;99.90;;;;;;5055640;28;20037;-18
2023/12/20 04:53:59;;;;;;;20.77;3.17;;;6.40;99.90;;;;;;5056198;28;20133;-18
2023/12/20 04:56:25;;;;;;;22.38;4.45;;;6.50;99.90;;;;;;5055874;28;20522;-18
2023/12/20 04:58:51;;;;;;;19.52;3.00;;;6.50;99.90;;;;;;5055825;28;20068;-18
2023/12/20 05:01:17;;;;;;;24.13;4.18;;;6.60;99.90;;;;;;5054513;28;20491;-18
2023/12/20 05:03:42;;;;;;;13.82;2.70;;;6.60;99.90;;;;;;5038357;28;20045;-18
2023/12/20 05:06:10;;;;;;;20.08;3.65;;;6.60;99.90;;;;;;5038144;28;20383;-18
2023/12/20 05:08:35;;;;;;;24.42;4.63;;;6.60;99.90;;;;;;5055631;28;20529;-18
2023/12/20 05:11:01;;;;;;;17.38;3.80;;;6.60;99.90;;;;;;5054149;28;20053;-18
2023/12/20 05:13:27;;;;;;;21.55;4.07;;;6.60;99.90;;;;;;5037956;28;20091;-18
2023/12/20 05:15:53;;;;;;;12.15;2.20;;;6.70;99.90;;;;;;5054502;28;20387;-18
2023/12/20 05:18:20;;;;;;;19.88;3.60;;;6.70;99.90;;;;;;5055168;28;20059;-18
2023/12/20 05:20:46;;;;;;;22.80;3.28;;;6.70;99.90;;;;;;5037877;28;20045;-18
2023/12/20 05:23:13;;;;;;;24.50;4.22;;;6.60;99.90;;;;;;5054131;28;20102;-18
2023/12/20 05:25:39;;;;;;;15.57;3.55;;;6.70;99.90;;;;;;5054221;28;20560;-18
2023/12/20 05:28:05;;;;;;;22.05;3.92;;;6.70;99.90;;;;;;5054502;28;20044;-19
2023/12/20 05:30:30;;;;;;;29.02;3.95;;;6.70;99.90;;;;;;5055805;28;20045;-19
2023/12/20 05:32:56;;;;;;;26.17;4.75;;;6.70;99.90;;;;;;5055203;28;20514;-19
2023/12/20 05:35:23;;;;;;;18.17;4.10;;;6.70;99.90;;;;;;5054971;28;20363;-19
2023/12/20 05:37:49;;;;;;;30.20;4.68;;;6.70;99.90;;;;;;5053902;28;20053;-18
2023/12/20 05:40:15;;;;;;;28.67;2.88;;;6.70;99.90;;;;;;5054020;28;20056;-18
2023/12/20 05:42:41;;;;;;;32.35;4.30;;;6.70;99.90;;;;;;5054921;28;20102;-19
2023/12/20 05:45:07;;;;;;;23.75;4.07;;;6.60;99.90;;;;;;5053966;28;20433;-19
2023/12/20 05:47:33;;;;;;;33.55;4.43;;;6.70;99.90;;;;;;5054943;28;20049;-19
2023/12/20 05:49:59;;;;;;;29.75;3.67;;;6.80;99.90;;;;;;5036974;28;20509;-19
2023/12/20 05:52:24;;;;;;;24.25;3.88;;;6.80;99.90;;;;;;5037271;28;20053;-19
2023/12/20 05:54:50;;;;;;;25.98;4.65;;;6.80;99.90;;;;;;5054684;28;20045;-19
2023/12/20 05:57:16;;;;;;;16.20;3.97;;;6.80;99.90;;;;;;5054673;28;20045;-19
2023/12/20 05:59:42;;;;;;;37.38;5.25;;;6.80;99.90;;;;;;5053923;28;20060;-19
2023/12/20 06:02:08;;;;;;;20.67;3.25;;;6.80;99.90;;;;;;5054580;28;20041;-19
2023/12/20 06:04:33;;;;;;;33.70;4.35;;;6.80;99.90;;;;;;5036696;28;20073;-19
2023/12/20 06:06:59;;;;;;;25.63;5.75;;;6.90;99.90;;;;;;5054431;28;20053;-19
2023/12/20 06:09:27;;;;;;;23.45;4.05;;;7.00;99.90;;;;;;5054003;28;20053;-19
2023/12/20 06:11:53;;;;;;;25.10;4.30;;;6.90;99.90;;;;;;5054324;28;20128;-19
2023/12/20 06:14:19;;;;;;;25.60;5.60;;;6.80;99.90;;;;;;5053105;28;20530;-19
2023/12/20 06:16:45;;;;;;;32.90;4.63;;;6.90;99.90;;;;;;5053880;28;20098;-20
2023/12/20 06:19:11;;;;;;;29.35;5.10;;;6.80;99.90;;;;;;5053372;28;20037;-19
2023/12/20 06:21:37;;;;;;;20.60;4.55;;;6.80;99.90;;;;;;5052826;28;20182;-19
2023/12/20 06:24:03;;;;;;;21.98;4.50;;;6.70;99.90;;;;;;5035970;28;20140;-19
2023/12/20 06:26:28;;;;;;;25.42;3.72;;;6.70;99.90;;;;;;5054050;28;20517;-20
2023/12/20 06:28:55;;;;;;;20.77;4.75;;;6.80;99.90;;;;;;5054139;28;20045;-19
2023/12/20 06:31:21;;;;;;;23.10;3.72;;;6.90;99.90;;;;;;5053996;28;20053;-20
2023/12/20 06:33:47;;;;;;;19.92;3.63;;;6.90;99.90;;;;;;5054046;28;20047;-20
2023/12/20 06:36:13;;;;;;;23.65;5.03;;;7.00;99.90;;;;;;5054032;28;20106;-20
2023/12/20 06:38:39;;;;;;;12.32;2.67;;;7.00;99.90;;;;;;5053962;28;20053;-20
2023/12/20 06:41:05;;;;;;;28.13;5.00;;;6.90;99.90;;;;;;5053910;28;20045;-19
2023/12/20 06:43:32;;;;;;;26.88;6.32;;;7.00;99.90;;;;;;5054580;28;20383;-20
2023/12/20 06:45:58;;;;;;;21.65;4.63;;;7.00;99.90;;;;;;5053805;28;20079;-20
2023/12/20 06:48:24;;;;;;;16.38;4.28;;;7.00;99.90;;;;;;5052594;28;20049;-20
2023/12/20 06:50:50;;;;;;;19.08;4.55;;;7.10;99.90;;;;;;5053494;28;20045;-20
2023/12/20 06:53:16;;;;;;;26.45;4.97;;;7.00;99.90;;;;;;5053729;28;20059;-20
2023/12/20 06:55:42;;;;;;;22.02;4.18;;;7.10;99.90;;;;;;5052722;28;20103;-20
2023/12/20 06:58:08;;;;;;;21.42;4.03;;;7.10;99.90;;;;;;5054465;28;20045;-20
2023/12/20 07:00:34;;;;;;;21.40;3.95;;;7.10;99.90;;;;;;5053939;28;20467;-20
2023/12/20 07:03:00;;;;;;;24.17;3.55;;;7.10;99.90;;;;;;5054115;28;20053;-20
2023/12/20 07:05:26;;;;;;;14.90;2.90;;;7.20;99.90;;;;;;5053610;28;20048;-20
2023/12/20 07:07:52;;;;;;;17.08;4.93;;;7.20;99.90;;;;;;5052557;28;20057;-21
2023/12/20 07:10:18;;;;;;;20.73;4.10;;;7.10;99.90;;;;;;5053468;28;20134;-20
2023/12/20 07:12:44;;;;;;;22.63;3.45;;;7.10;99.90;;;;;;5053486;28;20048;-20
2023/12/20 07:15:10;;;;;;;22.48;4.57;;;7.20;99.90;;;;;;5053526;28;20060;-20
2023/12/20 07:17:36;;;;;;;22.00;4.68;;;7.20;99.90;;;;;;5054053;28;20116;-21
2023/12/20 07:20:06;;;;;;;28.45;4.80;;;7.20;99.90;;;;;;5053410;28;20132;-20
2023/12/20 07:22:33;;;;;;;18.83;3.90;;;7.20;99.90;;;;;;5053762;28;20458;-21
2023/12/20 07:24:59;;;;;;;21.25;4.10;;;7.20;99.90;;;;;;5053985;28;20051;-21
2023/12/20 07:27:26;;;;;;;35.90;4.15;;;7.20;99.90;;;;;;5053291;28;20055;-21
2023/12/20 07:29:52;;;;;;;21.10;4.13;;;7.10;99.90;;;;;;5053362;28;20052;-21
2023/12/20 07:32:18;;;;;;;28.23;5.47;;;7.10;99.90;;;;;;5053881;28;20045;-21
2023/12/20 07:34:43;;;;;;;25.05;4.97;;;7.20;99.90;;;;;;5053249;28;20041;-21
2023/12/20 07:37:13;;;;;;;30.05;5.15;;;7.10;99.90;;;;;;5052714;28;20115;-21
2023/12/20 07:39:42;;;;;;;21.77;3.33;;;7.10;99.90;;;;;;5053267;28;20103;-21
2023/12/20 07:42:08;;;;;;;16.00;3.40;;;7.10;99.90;;;;;;5053126;28;20467;-21
2023/12/20 07:44:35;;;;;;;19.55;3.90;;;7.10;99.90;;;;;;5053140;28;20045;-21
2023/12/20 07:47:02;;;;;;;20.50;4.53;;;7.10;99.90;;;;;;5052253;28;20053;-22
2023/12/20 07:49:28;;;;;;;21.63;4.78;;;7.10;99.90;;;;;;5053183;28;20049;-22
2023/12/20 07:51:53;;;;;;;15.95;3.50;;;7.20;99.90;;;;;;5053181;28;20107;-22
2023/12/20 07:54:19;;;;;;;20.52;4.15;;;7.20;99.90;;;;;;5053154;28;20677;-21
2023/12/20 07:56:46;;;;;;;16.90;2.75;;;7.20;99.90;;;;;;5053652;28;20040;-21
2023/12/20 07:59:12;;;;;;;21.27;4.70;;;7.20;99.90;;;;;;5035569;28;20052;-22
2023/12/20 08:01:38;;;;;;;17.05;3.80;;;7.30;99.90;;;;;;5053063;28;20132;-22
2023/12/20 08:04:04;;;;;;;18.67;3.83;;;7.30;99.90;;;;;;5056616;28;20464;-22
2023/12/20 08:06:29;;;;;;;30.52;4.43;;;7.20;99.90;;;;;;5056937;28;20084;-22
2023/12/20 08:08:55;;;;;;;25.70;4.82;;;7.10;99.90;;;;;;5056610;28;20045;-22
2023/12/20 08:11:21;;;;;;;22.73;3.63;;;7.20;99.90;;;;;;5056614;28;20053;-22
2023/12/20 08:13:47;;;;;;;24.98;4.30;;;7.20;99.90;;;;;;5057108;28;20378;-22
2023/12/20 08:16:13;;;;;;;23.42;4.85;;;7.10;99.90;;;;;;5055929;28;20131;-22
2023/12/20 08:18:39;;;;;;;14.00;3.53;;;7.00;99.90;;;;;;5056521;28;20049;-23
2023/12/20 08:21:07;;;;;;;24.20;4.90;;;7.00;99.90;;;;;;5055795;28;20045;-22
2023/12/20 08:23:34;;;;;;;18.05;3.70;;;6.90;99.90;;;;;;5056412;28;20056;-22
2023/12/20 08:26:05;;;;;;;18.02;5.07;;;6.90;99.90;;;;;;5056949;28;20063;-22
2023/12/20 08:28:31;;;;;;;17.10;3.25;;;7.00;99.90;;;;;;5056275;28;20419;-23
2023/12/20 08:30:57;;;;;;;24.20;3.53;;;7.10;99.90;;;;;;5056239;28;20052;-22
2023/12/20 08:33:23;;;;;;;13.10;4.10;;;7.20;99.90;;;;;;5055499;28;20045;-23
2023/12/20 08:35:48;;;;;;;13.35;3.30;;;7.20;99.90;;;;;;5054994;28;20041;-23
2023/12/20 08:38:14;;;;;;;17.63;3.58;;;7.20;99.90;;;;;;5056551;28;20055;-23
2023/12/20 08:40:40;;;;;;;9.18;1.23;;;7.20;99.90;;;;;;5055991;28;20060;-23
2023/12/20 08:43:06;;;;;;;9.52;1.88;;;6.60;99.90;;;;;;5056372;28;20045;-23
2023/12/20 08:45:31;;;;;;;11.95;1.50;;;6.20;99.90;;;;;;5055118;28;20048;-19
2023/12/20 08:47:58;;;;;;;9.27;2.08;;;5.30;99.90;;;;;;5056363;28;20045;-18
2023/12/20 08:50:25;;;;;;;15.13;2.17;;;5.40;99.90;;;;;;5055801;28;20040;-18
2023/12/20 08:52:54;;;;;;;14.68;1.60;;;4.30;99.90;;;;;;5038847;28;20045;-19
2023/12/20 08:55:20;;;;;;;15.63;2.58;;;4.00;99.90;;;;;;5054579;28;20533;-20
2023/12/20 08:57:45;;;;;;;14.75;2.25;;;4.30;99.90;;;;;;5055711;28;20131;-19
2023/12/20 09:00:12;;;;;;;22.40;3.58;;;4.10;99.90;;;;;;5055599;28;20044;-19
2023/12/20 09:02:40;;;;;;;15.15;2.38;;;5.40;99.90;;;;;;5055484;28;20498;-18
2023/12/20 09:05:07;;;;;;;14.65;2.85;;;5.50;99.90;;;;;;5055520;28;20095;-18
2023/12/20 09:07:32;;;;;;;17.10;2.30;;;4.90;99.90;;;;;;5055607;28;20095;-17
2023/12/20 09:09:59;;;;;;;12.63;2.20;;;5.60;99.90;;;;;;5055543;28;20037;-18
2023/12/20 09:12:25;;;;;;;14.23;2.10;;;5.40;99.90;;;;;;5054506;28;20080;-18
2023/12/20 09:14:51;;;;;;;15.27;2.28;;;5.30;99.90;;;;;;5055149;28;20041;-19
2023/12/20 09:17:18;;;;;;;9.57;1.40;;;4.60;99.90;;;;;;5055326;28;20094;-18
2023/12/20 09:19:44;;;;;;;4.28;0.90;;;5.10;99.90;;;;;;5055350;28;20049;-18
2023/12/20 09:22:11;;;;;;;8.68;0.82;;;4.20;99.90;;;;;;5055206;28;20133;-18
2023/12/20 09:24:36;;;;;;;5.15;0.93;;;5.00;99.90;;;;;;5054938;28;20140;-19
2023/12/20 09:27:03;;;;;;;3.10;0.52;;;4.80;99.90;;;;;;5055144;28;20130;-19
2023/12/20 09:29:29;;;;;;;3.53;0.57;;;4.20;99.90;;;;;;5055043;28;20049;-19
2023/12/20 09:31:55;;;;;;;6.90;1.15;;;4.20;99.90;;;;;;5055049;28;20088;-19
2023/12/20 09:34:21;;;;;;;8.90;1.00;;;4.80;99.90;;;;;;5053777;28;20045;-19
2023/12/20 09:36:47;;;;;;;5.43;0.50;;;4.70;99.90;;;;;;5053692;28;20056;-19
2023/12/20 09:39:14;;;;;;;6.43;1.17;;;4.40;99.90;;;;;;5053891;28;20045;-19
2023/12/20 09:41:47;;;;;;;7.30;1.08;;;4.50;99.90;;;;;;5054686;28;20045;-19
2023/12/20 09:44:17;;;;;;;8.43;1.60;;;4.70;99.90;;;;;;5054805;28;20040;-19
2023/12/20 09:46:45;;;;;;;7.07;1.02;;;4.80;99.90;;;;;;5055311;28;20076;-19
2023/12/20 09:49:15;;;;;;;6.70;0.98;;;5.10;99.90;;;;;;5054682;28;20080;-19
2023/12/20 09:51:41;;;;;;;17.35;2.08;;;4.90;99.90;;;;;;5054584;28;20049;-19
2023/12/20 09:54:07;;;;;;;9.48;0.85;;;5.00;99.90;;;;;;5055391;28;20041;-19
2023/12/20 09:56:34;;;;;;;12.48;1.85;;;5.10;99.90;;;;;;5055161;28;20099;-20
2023/12/20 09:59:00;;;;;;;8.63;1.75;;;5.00;99.90;;;;;;5037407;28;20060;-20
2023/12/20 10:01:28;;;;;;;9.30;1.27;;;5.20;99.90;;;;;;5054447;28;20063;-20
2023/12/20 10:03:58;;;;;;;7.97;1.05;;;5.40;99.90;;;;;;5053073;28;20452;-20
2023/12/20 10:06:24;;;;;;;5.85;0.88;;;5.40;99.90;;;;;;5054348;28;20480;-20
2023/12/20 10:08:50;;;;;;;12.18;1.65;;;5.50;99.90;;;;;;5053626;28;20139;-20
2023/12/20 10:11:15;;;;;;;9.57;1.15;;;5.50;99.90;;;;;;5054576;28;20072;-20
2023/12/20 10:13:43;;;;;;;12.27;0.98;;;5.50;99.90;;;;;;5053014;28;20099;-19
2023/12/20 10:16:09;;;;;;;13.05;1.45;;;5.60;99.90;;;;;;5054611;28;20053;-20
2023/12/20 10:18:35;;;;;;;12.48;1.83;;;5.70;99.90;;;;;;5054101;28;20045;-20
2023/12/20 10:21:01;;;;;;;6.55;1.55;;;5.90;99.90;;;;;;5054140;28;20056;-20
2023/12/20 10:23:27;;;;;;;10.77;1.52;;;6.00;99.90;;;;;;5053761;28;20052;-20
2023/12/20 10:25:57;;;;;;;13.15;1.48;;;6.00;99.90;;;;;;5052793;28;20132;-19
2023/12/20 10:28:27;;;;;;;7.93;1.00;;;6.00;99.90;;;;;;5036350;28;20099;-19
2023/12/20 10:30:57;;;;;;;11.18;1.92;;;6.00;99.90;;;;;;5053996;28;20045;-19
2023/12/20 10:33:35;;;;;;;3.47;1.33;;;5.90;99.90;;;;;;5054217;28;20044;-19
2023/12/20 10:36:00;;;;;;;12.80;1.95;;;6.00;99.90;;;;;;5053967;28;20049;-19
2023/12/20 10:38:28;;;;;;;16.77;1.88;;;6.10;99.90;;;;;;5053859;28;20055;-19
2023/12/20 10:40:58;;;;;;;13.45;1.88;;;6.00;99.90;;;;;;5053743;28;20078;-20
2023/12/20 10:43:26;;;;;;;17.08;2.13;;;6.00;99.90;;;;;;5052707;28;20048;-20
2023/12/20 10:45:52;;;;;;;16.92;2.03;;;6.00;99.90;;;;;;5052421;28;20110;-20
2023/12/20 10:48:18;;;;;;;14.25;1.95;;;6.20;99.90;;;;;;5052842;28;20044;-20
2023/12/20 10:50:45;;;;;;;21.00;3.47;;;6.20;99.90;;;;;;5053670;28;20391;-20
2023/12/20 10:53:12;;;;;;;15.02;2.25;;;6.20;99.90;;;;;;5053702;28;20327;-20
2023/12/20 10:55:38;;;;;;;17.88;2.78;;;6.10;99.90;;;;;;5052650;28;20084;-20
2023/12/20 10:58:08;;;;;;;20.02;2.28;;;6.00;99.90;;;;;;5052324;28;20081;-20
2023/12/20 11:00:43;;;;;;;12.80;2.38;;;6.00;99.90;;;;;;5053746;28;20426;-21
2023/12/20 11:03:11;;;;;;;14.50;1.60;;;6.10;99.90;;;;;;5053477;28;20102;-20
2023/12/20 11:06:03;;;;;;;14.80;2.55;;;6.20;99.90;;;;;;5054027;28;20076;-20
2023/12/20 11:08:38;;;;;;;17.60;2.33;;;6.30;99.90;;;;;;5053529;28;20052;-20
2023/12/20 11:11:27;;;;;;;14.00;2.65;;;6.30;99.90;;;;;;5053949;28;20055;-20
2023/12/20 11:14:13;;;;;;;9.32;2.03;;;6.40;99.90;;;;;;5053337;28;20529;-20
2023/12/20 11:16:38;;;;;;;15.00;2.25;;;6.40;99.90;;;;;;5053400;28;20056;-20
2023/12/20 11:19:07;;;;;;;13.63;2.30;;;6.40;99.90;;;;;;5053226;28;20053;-20
2023/12/20 11:21:33;;;;;;;12.80;2.67;;;6.40;99.90;;;;;;5053277;28;20048;-20
2023/12/20 11:24:00;;;;;;;9.70;2.38;;;6.30;99.90;;;;;;5053299;28;20041;-20
2023/12/20 11:26:29;;;;;;;12.50;2.10;;;6.40;99.90;;;;;;5052137;28;20106;-21
2023/12/20 11:29:31;;;;;;;12.02;2.35;;;6.50;99.90;;;;;;5053324;28;20132;-20
2023/12/20 11:31:59;;;;;;;16.35;2.78;;;6.60;99.90;;;;;;5053583;28;20048;-21
2023/12/20 11:34:28;;;;;;;15.88;2.65;;;6.70;99.90;;;;;;5053215;28;20045;-21
2023/12/20 11:36:59;;;;;;;15.45;2.35;;;6.70;99.90;;;;;;5052696;28;20441;-21
2023/12/20 11:39:26;;;;;;;19.67;3.03;;;6.80;99.90;;;;;;5056773;28;20087;-21
2023/12/20 11:41:55;;;;;;;19.33;3.75;;;6.70;99.90;;;;;;5057127;28;20110;-21
2023/12/20 11:44:20;;;;;;;19.15;2.80;;;6.70;99.90;;;;;;5057278;28;20075;-21
2023/12/20 11:46:46;;;;;;;12.02;2.90;;;6.70;99.90;;;;;;5057073;28;20483;-21
2023/12/20 11:49:12;;;;;;;17.90;3.55;;;6.70;99.90;;;;;;5057810;28;20122;-21
2023/12/20 11:51:42;;;;;;;10.25;2.20;;;6.60;99.90;;;;;;5055844;28;20491;-21
2023/12/20 11:54:08;;;;;;;13.90;2.63;;;6.60;99.90;;;;;;5056346;28;20135;-21
2023/12/20 11:56:36;;;;;;;11.35;1.92;;;6.60;99.90;;;;;;5055941;28;20102;-21
2023/12/20 11:59:02;;;;;;;28.88;3.28;;;6.60;99.90;;;;;;5056753;28;20048;-21
2023/12/20 12:01:28;;;;;;;15.75;3.47;;;6.60;99.90;;;;;;5055600;28;20059;-21
2023/12/20 12:04:04;;;;;;;12.75;2.95;;;6.60;99.90;;;;;;5056997;28;20041;-21
2023/12/20 12:06:30;;;;;;;16.92;3.03;;;6.70;99.90;;;;;;5056735;28;20053;-21
2023/12/20 12:08:55;;;;;;;17.02;2.03;;;6.70;99.90;;;;;;5056640;28;20056;-21
2023/12/20 12:11:22;;;;;;;17.67;2.80;;;6.70;99.90;;;;;;5056644;28;20437;-21
2023/12/20 12:13:48;;;;;;;14.15;1.73;;;6.70;99.90;;;;;;5055662;28;20105;-22
2023/12/20 12:16:18;;;;;;;18.73;2.58;;;6.60;99.90;;;;;;5056758;28;20049;-22
2023/12/20 12:18:45;;;;;;;14.57;1.88;;;6.60;99.90;;;;;;5057169;28;20110;-22
2023/12/20 12:21:18;;;;;;;13.80;1.98;;;6.60;99.90;;;;;;5055358;28;20419;-22
2023/12/20 12:23:44;;;;;;;19.65;2.63;;;6.60;99.90;;;;;;5056261;28;20064;-22
2023/12/20 12:26:09;;;;;;;16.88;2.88;;;6.60;99.90;;;;;;5056902;28;20392;-21
2023/12/20 12:28:35;;;;;;;8.40;1.98;;;6.70;99.90;;;;;;5056224;28;20132;-22
2023/12/20 12:31:01;;;;;;;14.50;2.90;;;6.60;99.90;;;;;;5056377;28;20075;-22
2023/12/20 12:33:27;;;;;;;13.13;2.30;;;6.60;99.90;;;;;;5056793;28;20041;-22
2023/12/20 12:35:53;;;;;;;9.77;2.47;;;6.60;99.90;;;;;;5055465;28;20048;-22
2023/12/20 12:38:23;;;;;;;7.13;1.65;;;6.50;99.90;;;;;;5055963;28;20099;-22
2023/12/20 12:40:50;;;;;;;12.32;2.20;;;6.50;99.90;;;;;;5054852;28;20052;-22
2023/12/20 12:43:16;;;;;;;15.10;3.10;;;6.50;99.90;;;;;;5055596;28;20045;-22
2023/12/20 12:45:41;;;;;;;12.60;2.72;;;6.60;99.90;;;;;;5056144;28;20383;-22